Time;durP1;ratioP1;P1;durP2;ratioP2;P2;SDS_P1;SDS_P2;PMS_P1;PMS_P2;Temp;Humidity;BMP_temperature;BMP_pressure;BME280_temperature;BME280_humidity;BME280_pressure;Samples;Min_cycle;Max_cycle;Signal;HPM_P1;HPM_P2
2024/02/05 05:44:50;;;;;;;10.30;3.90;;;;;;;3.39;100.00;98448.31;109512;1273;22514;-46
2024/02/05 05:47:18;;;;;;;10.90;4.60;;;;;;;3.38;100.00;98443.33;108297;1269;25207;-46
2024/02/05 05:49:45;;;;;;;6.80;3.80;;;;;;;3.37;100.00;98446.42;108282;1262;23335;-46
2024/02/05 05:52:13;;;;;;;8.80;3.60;;;;;;;3.36;100.00;98449.51;107879;1277;22378;-52
2024/02/05 05:54:41;;;;;;;8.30;4.00;;;;;;;3.36;100.00;98444.52;109200;1262;22345;-54
2024/02/05 05:57:09;;;;;;;6.70;3.70;;;;;;;3.36;100.00;98446.77;109652;1273;22603;-53
2024/02/05 05:59:41;;;;;;;8.70;3.80;;;;;;;3.36;100.00;98429.36;109390;1275;23544;-54
2024/02/05 06:02:10;;;;;;;5.20;3.10;;;;;;;3.35;100.00;98420.73;108905;1277;22528;-47
2024/02/05 06:04:38;;;;;;;6.80;3.30;;;;;;;3.35;100.00;98419.18;108950;1277;25473;-53
2024/02/05 06:07:08;;;;;;;7.30;3.20;;;;;;;3.35;100.00;98416.59;109518;1273;23224;-55
2024/02/05 06:09:36;;;;;;;9.50;3.40;;;;;;;3.35;100.00;98407.63;109962;1277;22380;-54
2024/02/05 06:12:04;;;;;;;6.70;3.10;;;;;;;3.38;100.00;98401.10;109902;1270;23383;-54
2024/02/05 06:14:50;;;;;;;4.50;2.90;;;;;;;3.41;100.00;98392.63;109278;1277;22415;-45
2024/02/05 06:17:45;;;;;;;6.20;3.10;;;;;;;3.44;100.00;98387.30;109355;1270;22465;-45
2024/02/05 06:20:45;;;;;;;7.10;3.80;;;;;;;3.48;100.00;98386.59;109605;1262;22578;-54
2024/02/05 06:27:41;;;;;;;9.80;3.50;;;;;;;3.63;100.00;98375.53;109139;1270;22705;-54
2024/02/05 06:44:09;;;;;;;6.40;2.90;;;;;;;4.19;100.00;98381.69;109978;1269;23096;-54
2024/02/05 06:47:41;;;;;;;6.20;3.20;;;;;;;4.26;100.00;98369.92;109532;1273;22166;-47
2024/02/05 06:50:10;;;;;;;6.10;2.90;;;;;;;4.35;100.00;98365.73;109151;1272;22560;-54
2024/02/05 06:52:43;;;;;;;5.60;2.90;;;;;;;4.41;100.00;98372.95;109501;1273;22470;-54
2024/02/05 06:55:12;;;;;;;4.80;2.80;;;;;;;4.46;100.00;98364.11;108968;1272;25310;-54
2024/02/05 06:57:40;;;;;;;3.80;2.50;;;;;;;4.52;100.00;98369.25;109942;1270;23524;-47
2024/02/05 07:00:10;;;;;;;7.10;3.00;;;;;;;4.55;100.00;98356.80;109113;1276;22499;-54
2024/02/05 07:02:40;;;;;;;6.80;2.70;;;;;;;4.59;100.00;98360.59;109513;1272;22354;-50
2024/02/05 07:05:10;;;;;;;8.10;3.00;;;;;;;4.62;100.00;98358.14;109526;1274;22445;-47
2024/02/05 07:07:40;;;;;;;7.30;3.00;;;;;;;4.67;100.00;98369.85;109753;1272;23264;-55
2024/02/05 07:10:14;;;;;;;6.10;2.90;;;;;;;4.74;100.00;98357.36;109251;1272;22665;-55
2024/02/05 07:12:41;;;;;;;8.40;3.00;;;;;;;4.82;100.00;98350.39;109176;1272;24472;-56
2024/02/05 07:15:21;;;;;;;5.10;2.30;;;;;;;4.91;100.00;98376.59;109467;1276;22561;-53
2024/02/05 07:17:48;;;;;;;6.30;2.70;;;;;;;4.98;100.00;98379.80;109800;1272;23090;-54
2024/02/05 07:20:16;;;;;;;5.40;2.90;;;;;;;5.03;100.00;98348.14;109585;1272;22325;-54
2024/02/05 07:22:56;;;;;;;4.50;2.40;;;;;;;5.10;100.00;98350.16;109712;1268;23422;-47
2024/02/05 07:25:25;;;;;;;4.60;2.50;;;;;;;5.21;100.00;98346.42;109844;1268;23094;-46
2024/02/05 07:27:53;;;;;;;4.00;2.10;;;;;;;5.32;100.00;98361.36;109681;1273;23359;-55
2024/02/05 07:30:23;;;;;;;9.30;4.60;;;;;;;5.45;100.00;98344.63;108965;1270;22730;-52
2024/02/05 07:32:58;;;;;;;8.50;2.60;;;;;;;5.55;100.00;98352.14;109093;1277;22716;-55
2024/02/05 07:35:26;;;;;;;6.60;2.50;;;;;;;5.57;100.00;98354.37;109915;1270;22875;-46
2024/02/05 07:37:54;;;;;;;4.90;2.70;;;;;;;5.57;100.00;98346.41;109849;1275;23190;-47
2024/02/05 07:40:22;;;;;;;3.90;2.50;;;;;;;5.55;100.00;98354.55;109340;1274;22247;-46
2024/02/05 07:42:51;;;;;;;5.90;3.00;;;;;;;5.53;100.00;98344.38;108666;1271;22557;-55
2024/02/05 07:45:25;;;;;;;7.00;2.70;;;;;;;5.50;100.00;98350.11;109262;1270;22436;-54
2024/02/05 07:48:00;;;;;;;5.30;2.70;;;;;;;5.46;100.00;98348.44;109236;1270;22327;-46
2024/02/05 07:50:32;;;;;;;4.40;2.80;;;;;;;5.45;100.00;98356.56;109177;1271;22489;-53
2024/02/05 07:53:07;;;;;;;5.70;2.50;;;;;;;5.43;100.00;98342.41;109148;1270;22509;-55
2024/02/05 07:55:35;;;;;;;4.20;2.60;;;;;;;5.40;100.00;98337.26;109378;1271;23436;-47
2024/02/05 07:58:09;;;;;;;5.10;2.60;;;;;;;5.39;100.00;98339.34;109737;1273;22408;-46
2024/02/05 08:00:51;;;;;;;5.60;2.90;;;;;;;5.38;100.00;98336.05;109537;1276;23523;-54
2024/02/05 08:03:20;;;;;;;5.00;2.60;;;;;;;5.39;100.00;98322.56;109194;1270;22425;-51
2024/02/05 08:06:07;;;;;;;5.50;2.80;;;;;;;5.41;100.00;98323.23;108598;1270;22530;-45
2024/02/05 08:08:50;;;;;;;5.20;2.80;;;;;;;5.46;100.00;98315.40;108647;1276;22537;-47
2024/02/05 08:11:50;;;;;;;4.80;2.30;;;;;;;5.50;100.00;98306.89;109583;1276;22447;-54
2024/02/05 08:14:42;;;;;;;6.20;2.60;;;;;;;5.55;100.00;98316.67;109998;1272;22374;-53
2024/02/05 08:17:11;;;;;;;5.40;2.30;;;;;;;5.60;100.00;98301.92;109604;1276;22462;-53
2024/02/05 08:19:38;;;;;;;5.60;2.30;;;;;;;5.67;100.00;98305.83;109887;1273;22450;-53
2024/02/05 08:22:06;;;;;;;6.10;2.70;;;;;;;5.75;100.00;98297.77;109850;1260;22273;-54
2024/02/05 08:24:34;;;;;;;9.70;3.00;;;;;;;5.82;100.00;98305.30;109774;1276;22372;-44
2024/02/05 08:27:03;;;;;;;7.40;2.80;;;;;;;5.89;100.00;98294.65;109955;1276;22430;-46
2024/02/05 08:29:30;;;;;;;6.70;2.80;;;;;;;5.98;100.00;98298.71;109683;1272;22292;-57
2024/02/05 08:31:59;;;;;;;4.20;2.20;;;;;;;6.08;100.00;98294.60;109549;1275;22507;-54
2024/02/05 08:34:29;;;;;;;3.80;2.00;;;;;;;6.16;100.00;98284.98;109753;1273;22530;-50
2024/02/05 08:36:58;;;;;;;5.60;2.50;;;;;;;6.22;100.00;98280.56;109639;1276;23231;-46
2024/02/05 08:39:26;;;;;;;7.00;2.30;;;;;;;6.27;100.00;98280.65;109776;1272;22405;-54
2024/02/05 08:41:54;;;;;;;6.60;2.40;;;;;;;6.33;100.00;98279.88;109668;1276;23617;-47
2024/02/05 08:44:27;;;;;;;4.80;2.40;;;;;;;6.39;100.00;98286.04;109820;1276;23666;-54
2024/02/05 08:47:03;;;;;;;6.70;2.20;;;;;;;6.41;100.00;98280.62;109606;1276;22414;-56
2024/02/05 08:49:31;;;;;;;6.00;2.20;;;;;;;6.39;100.00;98278.05;109520;1270;22581;-54
2024/02/05 08:51:59;;;;;;;7.00;2.30;;;;;;;6.39;100.00;98262.83;109719;1273;23226;-54
2024/02/05 08:54:31;;;;;;;4.90;2.20;;;;;;;6.42;100.00;98256.89;109388;1273;22888;-45
2024/02/05 08:57:08;;;;;;;6.50;2.30;;;;;;;6.47;100.00;98250.75;109182;1270;22447;-47
2024/02/05 08:59:36;;;;;;;6.30;2.40;;;;;;;6.47;100.00;98245.55;109777;1276;22657;-54
2024/02/05 09:02:04;;;;;;;4.00;2.30;;;;;;;6.50;100.00;98248.80;109728;1272;22554;-55
2024/02/05 09:04:32;;;;;;;6.70;2.40;;;;;;;6.53;100.00;98229.16;109853;1272;22402;-46
2024/02/05 09:07:00;;;;;;;5.40;2.30;;;;;;;6.55;99.80;98255.80;109864;1273;22436;-52
2024/02/05 09:09:33;;;;;;;4.00;2.20;;;;;;;6.53;100.00;98241.63;109837;1270;22377;-54
2024/02/05 09:12:01;;;;;;;6.90;2.30;;;;;;;6.50;100.00;98253.29;109941;1272;22500;-54
2024/02/05 09:14:34;;;;;;;2.40;1.40;;;;;;;6.52;100.00;98244.95;109606;1275;24135;-53
2024/02/05 09:17:03;;;;;;;3.70;1.70;;;;;;;6.56;99.79;98242.10;109634;1262;22219;-51
2024/02/05 09:19:32;;;;;;;4.80;2.10;;;;;;;6.59;99.92;98223.16;109933;1272;22790;-53
2024/02/05 09:22:00;;;;;;;3.90;2.10;;;;;;;6.62;99.65;98241.48;109263;1272;22391;-54
2024/02/05 09:24:28;;;;;;;4.10;1.80;;;;;;;6.59;98.97;98234.59;109942;1273;22397;-53
2024/02/05 09:26:56;;;;;;;3.80;1.90;;;;;;;6.54;99.33;98227.08;109765;1272;22545;-53
2024/02/05 09:29:24;;;;;;;2.80;1.40;;;;;;;6.49;99.82;98217.10;109747;1272;22421;-55
2024/02/05 09:31:53;;;;;;;5.60;2.10;;;;;;;6.46;99.79;98222.35;109694;1271;23676;-55
2024/02/05 09:34:21;;;;;;;4.30;1.80;;;;;;;6.46;99.93;98213.68;109236;1276;22599;-54
2024/02/05 09:36:49;;;;;;;2.30;1.30;;;;;;;6.51;99.80;98218.64;109584;1276;23665;-45
2024/02/05 09:39:17;;;;;;;2.90;1.50;;;;;;;6.55;99.18;98215.10;109301;1276;22308;-54
2024/02/05 09:41:50;;;;;;;2.70;1.50;;;;;;;6.59;98.23;98210.17;109232;1263;22522;-52
2024/02/05 09:44:18;;;;;;;4.50;1.70;;;;;;;6.60;98.76;98194.04;108990;1276;22536;-46
2024/02/05 09:46:50;;;;;;;3.10;1.60;;;;;;;6.62;99.02;98202.87;109620;1274;23451;-46
2024/02/05 09:49:19;;;;;;;4.80;1.70;;;;;;;6.61;99.38;98179.83;109650;1273;22363;-54
2024/02/05 09:51:53;;;;;;;3.70;2.00;;;;;;;6.59;99.08;98180.39;108729;1275;23396;-47
2024/02/05 09:54:24;;;;;;;3.40;2.00;;;;;;;6.54;99.80;98174.07;109633;1273;22352;-52
2024/02/05 09:57:10;;;;;;;1.90;1.70;;;;;;;6.48;99.90;98171.40;107996;1263;25482;-46
2024/02/05 09:59:40;;;;;;;9.10;4.40;;;;;;;6.40;99.96;98180.19;109385;1273;22451;-48
2024/02/05 10:02:13;;;;;;;5.80;3.30;;;;;;;6.33;99.80;98182.21;108833;1272;22552;-47
2024/02/05 10:04:44;;;;;;;27.60;16.30;;;;;;;6.26;100.00;98157.58;109483;1274;23658;-54
2024/02/05 10:07:16;;;;;;;13.10;6.60;;;;;;;6.22;100.00;98161.63;109565;1278;23573;-54
2024/02/05 10:09:44;;;;;;;3.70;2.40;;;;;;;6.19;100.00;98157.15;109605;1270;22542;-47
2024/02/05 10:12:12;;;;;;;8.80;4.40;;;;;;;6.17;100.00;98163.09;109560;1273;22860;-52
2024/02/05 10:14:41;;;;;;;22.50;10.50;;;;;;;6.11;100.00;98155.56;109453;1273;23153;-48
2024/02/05 10:18:52;;;;;;;17.30;5.40;;;;;;;5.96;100.00;98159.09;106040;1305;545224;-53
2024/02/05 10:21:27;;;;;;;8.00;3.80;;;;;;;5.86;100.00;98158.33;108426;1283;23250;-53
2024/02/05 10:24:38;;;;;;;6.40;3.00;;;;;;;5.84;100.00;98155.60;108793;1285;23388;-54
2024/02/05 10:27:36;;;;;;;9.30;5.10;;;;;;;5.86;100.00;98143.11;109063;1271;22602;-46
2024/02/05 10:30:28;;;;;;;29.00;12.80;;;;;;;5.88;100.00;98141.70;109599;1270;22457;-46
2024/02/05 10:33:05;;;;;;;19.80;10.70;;;;;;;5.87;100.00;98139.46;109479;1271;194814;-54
2024/02/05 10:35:40;;;;;;;5.80;4.10;;;;;;;5.88;100.00;98131.66;109573;1269;22203;-47
2024/02/05 10:38:22;;;;;;;3.20;1.60;;;;;;;5.90;100.00;98124.89;109453;1262;22327;-47
2024/02/05 10:41:14;;;;;;;2.90;1.80;;;;;;;5.95;100.00;98125.36;109767;1269;22373;-54
2024/02/05 10:43:54;;;;;;;4.80;1.70;;;;;;;6.00;100.00;98108.48;109579;1272;22873;-45
2024/02/05 10:46:50;;;;;;;1.30;1.10;;;;;;;6.05;100.00;98116.03;109809;1270;22846;-46
2024/02/05 10:58:08;;;;;;;3.80;1.60;;;;;;;6.19;100.00;98103.16;109597;1259;23598;-48
2024/02/05 11:01:47;;;;;;;4.30;2.00;;;;;;;6.21;100.00;98093.77;109638;1262;23276;-48
2024/02/05 11:05:18;;;;;;;;;;;;;;;6.19;100.00;98100.38;108382;1270;25268;-49
2024/02/05 11:08:09;;;;;;;3.10;1.40;;;;;;;6.15;100.00;98078.65;109850;1270;22397;-48
2024/02/05 11:11:38;;;;;;;3.30;1.80;;;;;;;6.17;100.00;98089.70;109781;1269;22895;-56
2024/02/05 11:14:29;;;;;;;2.70;1.60;;;;;;;6.23;100.00;98099.98;109968;1269;22470;-48
2024/02/05 11:16:57;;;;;;;3.10;1.50;;;;;;;6.21;100.00;98093.61;109955;1270;23142;-47
2024/02/05 11:19:25;;;;;;;2.50;1.40;;;;;;;6.12;100.00;98071.61;109973;1269;22426;-48
2024/02/05 11:21:53;;;;;;;2.70;1.60;;;;;;;6.07;100.00;98076.00;109704;1274;22502;-48
2024/02/05 11:24:23;;;;;;;2.90;1.50;;;;;;;6.16;100.00;98064.95;109838;1271;22422;-48
2024/02/05 11:26:55;;;;;;;7.60;1.70;;;;;;;6.58;100.00;98061.92;109411;1273;22403;-55
2024/02/05 11:29:23;;;;;;;2.50;1.20;;;;;;;7.16;100.00;98055.54;110056;1270;23233;-55
2024/02/05 11:31:54;;;;;;;2.70;1.70;;;;;;;7.47;100.00;98055.38;110040;1269;22211;-47
2024/02/05 11:34:23;;;;;;;3.60;1.50;;;;;;;7.56;99.76;98045.79;110029;1272;22527;-55
2024/02/05 11:36:53;;;;;;;2.50;1.30;;;;;;;7.71;98.11;98036.05;109792;1270;22891;-47
2024/02/05 11:39:20;;;;;;;3.40;1.80;;;;;;;7.80;97.32;98037.59;109755;1272;22460;-48
2024/02/05 11:41:48;;;;;;;1.80;0.90;;;;;;;7.96;97.34;98012.35;109706;1270;22314;-54
2024/02/05 11:44:18;;;;;;;4.50;1.50;;;;;;;8.21;95.16;98013.77;110151;1274;22249;-54
2024/02/05 11:46:45;;;;;;;3.20;1.30;;;;;;;8.32;92.36;98022.17;109167;1272;23043;-47
2024/02/05 11:49:13;;;;;;;3.90;1.20;;;;;;;8.24;91.73;98002.41;109180;1270;23058;-48
2024/02/05 11:51:42;;;;;;;1.40;1.00;;;;;;;8.19;91.53;98016.79;109838;1272;25449;-58
2024/02/05 11:54:10;;;;;;;2.10;0.80;;;;;;;8.09;91.35;98011.31;109431;1272;22340;-54
2024/02/05 11:56:38;;;;;;;2.30;0.80;;;;;;;7.94;91.84;98005.46;109913;1269;22298;-54
2024/02/05 11:59:08;;;;;;;1.50;0.70;;;;;;;7.84;91.83;98017.71;109835;1272;23953;-56
2024/02/05 12:01:36;;;;;;;1.40;0.90;;;;;;;7.79;91.60;98004.97;109958;1270;23034;-54
2024/02/05 12:04:05;;;;;;;1.20;0.90;;;;;;;7.72;91.38;98011.57;109958;1273;22402;-55
2024/02/05 12:06:32;;;;;;;2.60;1.30;;;;;;;7.59;91.83;97994.88;110010;1270;22337;-56
2024/02/05 12:09:01;;;;;;;1.70;1.00;;;;;;;7.48;92.13;97995.49;109975;1270;23205;-47
2024/02/05 12:11:28;;;;;;;3.70;2.50;;;;;;;7.40;92.76;97985.28;110054;1276;22203;-56
2024/02/05 12:13:57;;;;;;;1.10;0.70;;;;;;;7.34;93.25;97983.69;109991;1273;22363;-55
2024/02/05 12:16:30;;;;;;;0.60;0.60;;;;;;;7.29;93.47;97983.96;110042;1275;22414;-55
2024/02/05 12:18:57;;;;;;;;;;;;;;;7.26;94.35;97970.35;109929;1275;22582;-47
2024/02/05 12:21:39;;;;;;;1.60;1.00;;;;;;;7.23;94.97;97992.96;110042;1270;22858;-49
2024/02/05 12:24:07;;;;;;;1.40;0.80;;;;;;;7.29;96.80;97972.89;109949;1272;22926;-48
2024/02/05 12:26:35;;;;;;;1.00;0.80;;;;;;;7.37;97.31;97977.55;109947;1275;22418;-54
2024/02/05 12:29:03;;;;;;;2.60;1.10;;;;;;;7.43;96.68;97968.71;109965;1276;22953;-55
2024/02/05 12:31:31;;;;;;;3.60;1.50;;;;;;;7.45;95.64;97988.95;109947;1275;22396;-54
2024/02/05 12:33:59;;;;;;;2.30;1.10;;;;;;;7.40;95.07;97967.25;110018;1276;22399;-54
2024/02/05 12:36:29;;;;;;;1.00;0.90;;;;;;;7.35;95.67;97986.61;110006;1275;22373;-54
2024/02/05 12:38:57;;;;;;;2.30;0.90;;;;;;;7.28;95.51;97985.57;110095;1276;22309;-53
2024/02/05 12:41:24;;;;;;;3.50;1.00;;;;;;;7.24;95.82;97968.84;110141;1276;22415;-47
2024/02/05 12:43:52;;;;;;;1.50;0.90;;;;;;;7.28;95.68;97983.66;110109;1276;22465;-47
2024/02/05 12:46:20;;;;;;;2.90;1.10;;;;;;;7.32;95.13;97984.09;110139;1275;22681;-47
2024/02/05 12:48:47;;;;;;;2.10;1.10;;;;;;;7.36;95.43;97962.99;110160;1276;23118;-55
2024/02/05 12:51:15;;;;;;;2.10;0.90;;;;;;;7.38;94.81;97960.86;110098;1276;22378;-54
2024/02/05 12:53:43;;;;;;;3.80;1.10;;;;;;;7.36;95.54;97989.19;110230;1276;23129;-56
2024/02/05 12:56:10;;;;;;;1.90;0.80;;;;;;;7.26;97.30;98000.70;109881;1275;22282;-55
2024/02/05 12:58:41;;;;;;;1.40;1.00;;;;;;;7.04;99.84;98010.20;110105;1276;22479;-56
2024/02/05 13:01:09;;;;;;;1.40;0.80;;;;;;;6.76;100.00;98017.92;110255;1275;22297;-57
2024/02/05 13:03:40;;;;;;;1.50;0.80;;;;;;;6.45;100.00;98019.59;110140;1275;23055;-57
2024/02/05 13:06:08;;;;;;;4.60;0.70;;;;;;;6.14;100.00;98013.76;110238;1276;23066;-57
2024/02/05 13:08:41;;;;;;;1.50;1.20;;;;;;;5.90;100.00;98009.49;110227;1276;22293;-49
2024/02/05 13:11:08;;;;;;;0.50;0.50;;;;;;;5.74;100.00;98031.55;110336;1276;22389;-48
2024/02/05 13:13:36;;;;;;;0.20;0.20;;;;;;;5.49;100.00;98032.47;110257;1275;22404;-56
2024/02/05 13:16:04;;;;;;;0.50;0.40;;;;;;;4.91;100.00;98032.95;110260;1276;22515;-56
2024/02/05 13:18:32;;;;;;;0.10;0.10;;;;;;;4.32;100.00;98039.88;107529;1276;25357;-59
2024/02/05 13:21:00;;;;;;;0.20;0.20;;;;;;;3.78;100.00;98038.00;108123;1276;24244;-57
2024/02/05 13:23:27;;;;;;;0.60;0.20;;;;;;;3.33;100.00;98023.71;107956;1275;22171;-58
2024/02/05 13:25:55;;;;;;;0.60;0.30;;;;;;;3.04;100.00;98024.08;108367;1275;25204;-50
2024/02/05 13:28:25;;;;;;;0.70;0.40;;;;;;;2.84;100.00;98037.27;109249;1275;22525;-59
2024/02/05 13:30:52;;;;;;;0.30;0.20;;;;;;;2.67;100.00;98069.02;107701;1276;22506;-59
2024/02/05 13:33:20;;;;;;;0.10;0.10;;;;;;;2.52;100.00;98105.21;110213;1276;22400;-57
2024/02/05 13:35:48;;;;;;;0.10;0.10;;;;;;;2.32;100.00;98102.33;107496;1276;22524;-60
2024/02/05 13:38:16;;;;;;;0.40;0.20;;;;;;;2.07;100.00;98109.58;108366;1276;23155;-51
2024/02/05 13:40:43;;;;;;;0.30;0.30;;;;;;;1.82;100.00;98120.61;108766;1276;22549;-50
2024/02/05 13:43:11;;;;;;;0.70;0.50;;;;;;;1.59;100.00;98131.77;107173;1275;25321;-50
2024/02/05 13:45:39;;;;;;;0.20;0.20;;;;;;;1.42;100.00;98130.17;109121;1275;23125;-51
2024/02/05 13:48:07;;;;;;;2.10;0.40;;;;;;;1.29;100.00;98132.56;110359;1270;22404;-51
2024/02/05 13:50:34;;;;;;;1.10;0.20;;;;;;;1.22;100.00;98123.79;110305;1276;22207;-51
2024/02/05 13:53:02;;;;;;;0.20;0.20;;;;;;;1.17;100.00;98117.24;110266;1276;22266;-50
2024/02/05 13:55:29;;;;;;;0.10;0.10;;;;;;;1.15;100.00;98117.23;109180;1276;22549;-60
2024/02/05 13:57:57;;;;;;;0.20;0.20;;;;;;;1.15;100.00;98120.15;108943;1276;22373;-58
2024/02/05 14:00:25;;;;;;;0.10;0.10;;;;;;;1.17;100.00;98119.82;110261;1276;22333;-59
2024/02/05 14:02:53;;;;;;;0.20;0.20;;;;;;;1.22;100.00;98096.98;109927;1276;22907;-58
2024/02/05 14:05:21;;;;;;;0.40;0.30;;;;;;;1.29;100.00;98092.54;110314;1276;22439;-57
2024/02/05 14:07:48;;;;;;;0.40;0.40;;;;;;;1.35;100.00;98101.30;110341;1276;22346;-58
2024/02/05 14:10:16;;;;;;;0.70;0.60;;;;;;;1.41;100.00;98121.07;110294;1276;23040;-58
2024/02/05 14:12:44;;;;;;;0.30;0.30;;;;;;;1.48;100.00;98097.73;109454;1276;22365;-51
2024/02/05 14:15:12;;;;;;;0.40;0.40;;;;;;;1.53;100.00;98099.78;109133;1276;22991;-50
2024/02/05 14:17:40;;;;;;;0.30;0.30;;;;;;;1.59;100.00;98103.75;109372;1277;22371;-50
2024/02/05 14:20:08;;;;;;;0.60;0.40;;;;;;;1.62;100.00;98104.27;110112;1277;22265;-59
2024/02/05 14:22:35;;;;;;;1.20;0.40;;;;;;;1.64;100.00;98094.48;109461;1277;22228;-57
